sensor_id;sensor_type;location;lat;lon;timestamp;temperature;humidity
13148;DHT22;6639;50.956;4.242;2023-02-28T00:01:11;10.50;91.10
13148;DHT22;6639;50.956;4.242;2023-02-28T00:03:38;10.50;91.10
13148;DHT22;6639;50.956;4.242;2023-02-28T00:06:06;10.40;91.10
13148;DHT22;6639;50.956;4.242;2023-02-28T00:08:34;10.40;91.20
13148;DHT22;6639;50.956;4.242;2023-02-28T00:11:03;10.40;91.20
13148;DHT22;6639;50.956;4.242;2023-02-28T00:13:31;10.40;91.20
13148;DHT22;6639;50.956;4.242;2023-02-28T00:16:02;10.30;91.10
13148;DHT22;6639;50.956;4.242;2023-02-28T00:18:31;10.30;91.30
13148;DHT22;6639;50.956;4.242;2023-02-28T00:20:58;10.30;91.20
13148;DHT22;6639;50.956;4.242;2023-02-28T00:23:25;10.30;91.30
13148;DHT22;6639;50.956;4.242;2023-02-28T00:25:53;10.00;91.40
13148;DHT22;6639;50.956;4.242;2023-02-28T00:28:23;10.10;91.40
13148;DHT22;6639;50.956;4.242;2023-02-28T00:30:50;10.20;91.30
13148;DHT22;6639;50.956;4.242;2023-02-28T00:33:17;10.10;91.30
13148;DHT22;6639;50.956;4.242;2023-02-28T00:35:44;10.10;91.30
13148;DHT22;6639;50.956;4.242;2023-02-28T00:38:12;10.10;91.30
13148;DHT22;6639;50.956;4.242;2023-02-28T00:40:39;10.20;91.20
13148;DHT22;6639;50.956;4.242;2023-02-28T00:43:06;10.10;91.20
13148;DHT22;6639;50.956;4.242;2023-02-28T00:45:34;10.20;91.20
13148;DHT22;6639;50.956;4.242;2023-02-28T00:48:01;10.10;91.10
13148;DHT22;6639;50.956;4.242;2023-02-28T00:50:29;10.00;91.10
13148;DHT22;6639;50.956;4.242;2023-02-28T00:52:56;10.10;91.20
13148;DHT22;6639;50.956;4.242;2023-02-28T00:55:25;10.00;91.30
13148;DHT22;6639;50.956;4.242;2023-02-28T00:57:51;9.90;91.70
13148;DHT22;6639;50.956;4.242;2023-02-28T01:00:20;9.90;91.80
13148;DHT22;6639;50.956;4.242;2023-02-28T01:02:48;9.90;91.80
13148;DHT22;6639;50.956;4.242;2023-02-28T01:05:15;9.90;91.80
13148;DHT22;6639;50.956;4.242;2023-02-28T01:07:42;9.90;91.90
13148;DHT22;6639;50.956;4.242;2023-02-28T01:10:10;9.80;91.90
13148;DHT22;6639;50.956;4.242;2023-02-28T01:12:37;9.70;91.90
13148;DHT22;6639;50.956;4.242;2023-02-28T01:15:05;9.70;91.80
13148;DHT22;6639;50.956;4.242;2023-02-28T01:17:32;9.60;92.00
13148;DHT22;6639;50.956;4.242;2023-02-28T01:20:00;9.60;92.10
13148;DHT22;6639;50.956;4.242;2023-02-28T01:22:28;9.60;91.90
13148;DHT22;6639;50.956;4.242;2023-02-28T01:24:55;9.70;92.00
13148;DHT22;6639;50.956;4.242;2023-02-28T01:27:21;9.60;92.00
13148;DHT22;6639;50.956;4.242;2023-02-28T01:29:50;9.60;92.10
13148;DHT22;6639;50.956;4.242;2023-02-28T01:32:17;9.60;92.20
13148;DHT22;6639;50.956;4.242;2023-02-28T01:34:44;9.40;92.40
13148;DHT22;6639;50.956;4.242;2023-02-28T01:37:12;9.40;92.40
13148;DHT22;6639;50.956;4.242;2023-02-28T01:39:39;9.40;92.40
13148;DHT22;6639;50.956;4.242;2023-02-28T01:42:08;9.50;92.50
13148;DHT22;6639;50.956;4.242;2023-02-28T01:45:04;9.40;92.40
13148;DHT22;6639;50.956;4.242;2023-02-28T01:47:35;9.50;92.50
13148;DHT22;6639;50.956;4.242;2023-02-28T01:50:07;9.30;92.40
13148;DHT22;6639;50.956;4.242;2023-02-28T01:52:37;9.20;92.80
13148;DHT22;6639;50.956;4.242;2023-02-28T01:55:08;9.20;92.90
13148;DHT22;6639;50.956;4.242;2023-02-28T01:57:40;9.00;93.30
13148;DHT22;6639;50.956;4.242;2023-02-28T02:00:11;9.00;93.40
13148;DHT22;6639;50.956;4.242;2023-02-28T02:02:42;8.70;93.70
13148;DHT22;6639;50.956;4.242;2023-02-28T02:05:14;8.80;93.50
13148;DHT22;6639;50.956;4.242;2023-02-28T02:07:45;8.40;93.70
13148;DHT22;6639;50.956;4.242;2023-02-28T02:10:14;8.30;94.20
13148;DHT22;6639;50.956;4.242;2023-02-28T02:15:56;7.40;95.20
13148;DHT22;6639;50.956;4.242;2023-02-28T02:18:29;7.70;95.50
13148;DHT22;6639;50.956;4.242;2023-02-28T02:27:16;8.40;94.80
13148;DHT22;6639;50.956;4.242;2023-02-28T02:30:04;8.50;94.40
13148;DHT22;6639;50.956;4.242;2023-02-28T02:32:58;8.30;94.60
13148;DHT22;6639;50.956;4.242;2023-02-28T02:35:35;8.40;94.60
13148;DHT22;6639;50.956;4.242;2023-02-28T02:38:08;8.00;94.60
13148;DHT22;6639;50.956;4.242;2023-02-28T02:40:41;8.30;94.80
13148;DHT22;6639;50.956;4.242;2023-02-28T02:43:15;7.90;95.30
13148;DHT22;6639;50.956;4.242;2023-02-28T02:45:47;7.90;95.60
13148;DHT22;6639;50.956;4.242;2023-02-28T02:48:17;8.20;94.90
13148;DHT22;6639;50.956;4.242;2023-02-28T02:50:49;8.30;94.70
13148;DHT22;6639;50.956;4.242;2023-02-28T02:53:21;8.40;94.60
13148;DHT22;6639;50.956;4.242;2023-02-28T02:55:51;8.60;94.40
13148;DHT22;6639;50.956;4.242;2023-02-28T02:58:23;8.80;94.20
13148;DHT22;6639;50.956;4.242;2023-02-28T03:00:54;8.90;94.00
13148;DHT22;6639;50.956;4.242;2023-02-28T03:03:23;9.00;93.90
13148;DHT22;6639;50.956;4.242;2023-02-28T03:05:57;9.00;93.90
13148;DHT22;6639;50.956;4.242;2023-02-28T03:08:25;9.00;93.80
13148;DHT22;6639;50.956;4.242;2023-02-28T03:10:56;9.00;93.60
13148;DHT22;6639;50.956;4.242;2023-02-28T03:14:03;9.10;93.50
13148;DHT22;6639;50.956;4.242;2023-02-28T03:16:39;9.10;93.50
13148;DHT22;6639;50.956;4.242;2023-02-28T03:22:26;9.00;93.50
13148;DHT22;6639;50.956;4.242;2023-02-28T03:25:04;9.00;93.40
13148;DHT22;6639;50.956;4.242;2023-02-28T03:27:36;9.00;93.20
13148;DHT22;6639;50.956;4.242;2023-02-28T03:30:10;9.10;93.20
13148;DHT22;6639;50.956;4.242;2023-02-28T03:32:42;9.10;93.10
13148;DHT22;6639;50.956;4.242;2023-02-28T03:35:12;9.10;93.10
13148;DHT22;6639;50.956;4.242;2023-02-28T03:37:44;9.00;92.90
13148;DHT22;6639;50.956;4.242;2023-02-28T03:40:14;9.00;92.90
13148;DHT22;6639;50.956;4.242;2023-02-28T03:42:45;9.00;93.00
13148;DHT22;6639;50.956;4.242;2023-02-28T03:45:16;9.00;92.90
13148;DHT22;6639;50.956;4.242;2023-02-28T03:47:48;9.00;92.90
13148;DHT22;6639;50.956;4.242;2023-02-28T03:50:18;8.90;92.80
13148;DHT22;6639;50.956;4.242;2023-02-28T03:52:50;8.80;92.90
13148;DHT22;6639;50.956;4.242;2023-02-28T03:55:18;8.90;92.90
13148;DHT22;6639;50.956;4.242;2023-02-28T03:57:54;8.90;93.10
13148;DHT22;6639;50.956;4.242;2023-02-28T04:00:27;8.80;93.10
13148;DHT22;6639;50.956;4.242;2023-02-28T04:02:55;8.80;93.00
13148;DHT22;6639;50.956;4.242;2023-02-28T04:05:24;8.80;92.90
13148;DHT22;6639;50.956;4.242;2023-02-28T04:07:53;8.80;92.90
13148;DHT22;6639;50.956;4.242;2023-02-28T04:10:20;8.80;93.00
13148;DHT22;6639;50.956;4.242;2023-02-28T04:12:50;8.70;92.90
13148;DHT22;6639;50.956;4.242;2023-02-28T04:15:17;8.80;92.70
13148;DHT22;6639;50.956;4.242;2023-02-28T04:17:50;8.70;92.70
13148;DHT22;6639;50.956;4.242;2023-02-28T04:20:17;8.70;92.70
13148;DHT22;6639;50.956;4.242;2023-02-28T04:22:44;8.80;92.90
13148;DHT22;6639;50.956;4.242;2023-02-28T04:25:12;8.60;92.90
13148;DHT22;6639;50.956;4.242;2023-02-28T04:27:40;8.60;92.90
13148;DHT22;6639;50.956;4.242;2023-02-28T04:30:07;8.50;93.00
13148;DHT22;6639;50.956;4.242;2023-02-28T04:32:35;8.50;92.90
13148;DHT22;6639;50.956;4.242;2023-02-28T04:35:03;8.30;92.90
13148;DHT22;6639;50.956;4.242;2023-02-28T04:37:30;8.40;93.10
13148;DHT22;6639;50.956;4.242;2023-02-28T04:40:00;8.40;93.10
13148;DHT22;6639;50.956;4.242;2023-02-28T04:42:29;8.40;93.20
13148;DHT22;6639;50.956;4.242;2023-02-28T04:45:01;8.50;93.30
13148;DHT22;6639;50.956;4.242;2023-02-28T04:47:29;8.50;93.80
13148;DHT22;6639;50.956;4.242;2023-02-28T04:49:56;8.30;94.20
13148;DHT22;6639;50.956;4.242;2023-02-28T04:52:23;8.10;94.30
13148;DHT22;6639;50.956;4.242;2023-02-28T04:54:51;8.20;94.30
13148;DHT22;6639;50.956;4.242;2023-02-28T04:57:18;8.30;94.40
13148;DHT22;6639;50.956;4.242;2023-02-28T04:59:46;8.30;95.20
13148;DHT22;6639;50.956;4.242;2023-02-28T05:02:16;8.20;95.40
13148;DHT22;6639;50.956;4.242;2023-02-28T05:04:43;8.20;95.40
13148;DHT22;6639;50.956;4.242;2023-02-28T05:07:10;8.30;95.60
13148;DHT22;6639;50.956;4.242;2023-02-28T05:09:37;8.30;95.60
13148;DHT22;6639;50.956;4.242;2023-02-28T05:12:04;8.40;95.60
13148;DHT22;6639;50.956;4.242;2023-02-28T05:14:31;8.50;95.70
13148;DHT22;6639;50.956;4.242;2023-02-28T05:16:59;8.40;95.70
13148;DHT22;6639;50.956;4.242;2023-02-28T05:19:26;8.40;95.80
13148;DHT22;6639;50.956;4.242;2023-02-28T05:21:54;8.50;95.90
13148;DHT22;6639;50.956;4.242;2023-02-28T05:24:21;8.40;96.10
13148;DHT22;6639;50.956;4.242;2023-02-28T05:26:52;8.50;96.00
13148;DHT22;6639;50.956;4.242;2023-02-28T05:29:19;8.50;95.80
13148;DHT22;6639;50.956;4.242;2023-02-28T05:31:46;8.60;95.60
13148;DHT22;6639;50.956;4.242;2023-02-28T05:34:15;8.80;95.80
13148;DHT22;6639;50.956;4.242;2023-02-28T05:36:42;8.90;95.60
13148;DHT22;6639;50.956;4.242;2023-02-28T05:39:09;8.90;95.70
13148;DHT22;6639;50.956;4.242;2023-02-28T05:41:39;8.90;95.80
13148;DHT22;6639;50.956;4.242;2023-02-28T05:44:06;8.90;95.80
13148;DHT22;6639;50.956;4.242;2023-02-28T05:46:33;9.00;95.60
13148;DHT22;6639;50.956;4.242;2023-02-28T05:49:00;8.90;95.80
13148;DHT22;6639;50.956;4.242;2023-02-28T05:51:29;8.90;95.90
13148;DHT22;6639;50.956;4.242;2023-02-28T05:53:59;8.90;95.90
13148;DHT22;6639;50.956;4.242;2023-02-28T05:56:26;8.90;95.80
13148;DHT22;6639;50.956;4.242;2023-02-28T05:58:53;8.80;95.80
13148;DHT22;6639;50.956;4.242;2023-02-28T06:01:32;8.50;95.80
13148;DHT22;6639;50.956;4.242;2023-02-28T06:03:59;8.40;96.50
13148;DHT22;6639;50.956;4.242;2023-02-28T06:06:28;8.40;96.10
13148;DHT22;6639;50.956;4.242;2023-02-28T06:08:56;8.30;96.60
13148;DHT22;6639;50.956;4.242;2023-02-28T06:11:23;8.40;96.30
13148;DHT22;6639;50.956;4.242;2023-02-28T06:13:53;8.20;96.70
13148;DHT22;6639;50.956;4.242;2023-02-28T06:16:21;8.20;96.50
13148;DHT22;6639;50.956;4.242;2023-02-28T06:18:48;7.30;97.10
13148;DHT22;6639;50.956;4.242;2023-02-28T06:21:15;7.20;97.70
13148;DHT22;6639;50.956;4.242;2023-02-28T06:23:43;7.40;98.20
13148;DHT22;6639;50.956;4.242;2023-02-28T06:26:11;7.60;97.70
13148;DHT22;6639;50.956;4.242;2023-02-28T06:28:38;7.40;97.70
13148;DHT22;6639;50.956;4.242;2023-02-28T06:31:07;7.70;98.10
13148;DHT22;6639;50.956;4.242;2023-02-28T06:33:34;8.10;97.50
13148;DHT22;6639;50.956;4.242;2023-02-28T06:36:01;7.80;97.60
13148;DHT22;6639;50.956;4.242;2023-02-28T06:38:28;7.60;98.10
13148;DHT22;6639;50.956;4.242;2023-02-28T06:40:58;7.40;97.90
13148;DHT22;6639;50.956;4.242;2023-02-28T06:43:27;7.70;98.30
13148;DHT22;6639;50.956;4.242;2023-02-28T06:45:56;7.60;97.70
13148;DHT22;6639;50.956;4.242;2023-02-28T06:48:23;7.00;98.30
13148;DHT22;6639;50.956;4.242;2023-02-28T06:50:50;7.70;98.90
13148;DHT22;6639;50.956;4.242;2023-02-28T06:53:17;7.60;98.30
13148;DHT22;6639;50.956;4.242;2023-02-28T06:55:44;7.60;98.30
13148;DHT22;6639;50.956;4.242;2023-02-28T06:58:12;7.80;98.20
13148;DHT22;6639;50.956;4.242;2023-02-28T07:00:44;7.50;98.30
13148;DHT22;6639;50.956;4.242;2023-02-28T07:03:11;7.40;98.20
13148;DHT22;6639;50.956;4.242;2023-02-28T07:05:40;7.40;98.50
13148;DHT22;6639;50.956;4.242;2023-02-28T07:08:08;7.10;98.10
13148;DHT22;6639;50.956;4.242;2023-02-28T07:10:37;6.90;99.20
13148;DHT22;6639;50.956;4.242;2023-02-28T07:13:04;7.50;99.40
13148;DHT22;6639;50.956;4.242;2023-02-28T07:15:33;7.00;99.20
13148;DHT22;6639;50.956;4.242;2023-02-28T07:18:00;7.50;99.30
13148;DHT22;6639;50.956;4.242;2023-02-28T07:20:27;7.40;98.90
13148;DHT22;6639;50.956;4.242;2023-02-28T07:22:54;7.40;98.50
13148;DHT22;6639;50.956;4.242;2023-02-28T07:25:22;7.30;99.20
13148;DHT22;6639;50.956;4.242;2023-02-28T07:27:49;7.60;98.90
13148;DHT22;6639;50.956;4.242;2023-02-28T07:30:16;8.00;99.10
13148;DHT22;6639;50.956;4.242;2023-02-28T07:32:45;8.00;98.70
13148;DHT22;6639;50.956;4.242;2023-02-28T07:35:12;7.70;99.00
13148;DHT22;6639;50.956;4.242;2023-02-28T07:37:40;8.10;98.90
13148;DHT22;6639;50.956;4.242;2023-02-28T07:40:11;8.10;98.80
13148;DHT22;6639;50.956;4.242;2023-02-28T07:42:39;8.00;98.60
13148;DHT22;6639;50.956;4.242;2023-02-28T07:45:08;7.80;98.70
13148;DHT22;6639;50.956;4.242;2023-02-28T07:47:37;8.10;99.10
13148;DHT22;6639;50.956;4.242;2023-02-28T07:50:07;8.50;99.20
13148;DHT22;6639;50.956;4.242;2023-02-28T07:52:36;8.00;98.50
13148;DHT22;6639;50.956;4.242;2023-02-28T07:55:04;7.80;99.00
13148;DHT22;6639;50.956;4.242;2023-02-28T07:57:31;8.10;98.90
13148;DHT22;6639;50.956;4.242;2023-02-28T07:59:58;8.00;99.10
13148;DHT22;6639;50.956;4.242;2023-02-28T08:02:25;8.10;98.80
13148;DHT22;6639;50.956;4.242;2023-02-28T08:04:52;8.00;98.90
13148;DHT22;6639;50.956;4.242;2023-02-28T08:07:20;8.10;98.70
13148;DHT22;6639;50.956;4.242;2023-02-28T08:09:47;8.50;99.20
13148;DHT22;6639;50.956;4.242;2023-02-28T08:12:14;7.50;98.50
13148;DHT22;6639;50.956;4.242;2023-02-28T08:14:41;7.50;98.90
13148;DHT22;6639;50.956;4.242;2023-02-28T08:17:09;7.40;99.50
13148;DHT22;6639;50.956;4.242;2023-02-28T08:19:37;7.30;99.20
13148;DHT22;6639;50.956;4.242;2023-02-28T08:22:04;7.50;99.30
13148;DHT22;6639;50.956;4.242;2023-02-28T08:24:32;7.00;98.90
13148;DHT22;6639;50.956;4.242;2023-02-28T08:26:59;7.00;99.60
13148;DHT22;6639;50.956;4.242;2023-02-28T08:29:26;6.70;99.40
13148;DHT22;6639;50.956;4.242;2023-02-28T08:31:53;6.60;99.40
13148;DHT22;6639;50.956;4.242;2023-02-28T08:34:19;6.60;99.60
13148;DHT22;6639;50.956;4.242;2023-02-28T08:36:47;6.80;99.70
13148;DHT22;6639;50.956;4.242;2023-02-28T08:39:14;6.80;98.80
13148;DHT22;6639;50.956;4.242;2023-02-28T08:41:43;6.30;98.90
13148;DHT22;6639;50.956;4.242;2023-02-28T08:44:10;5.80;99.00
13148;DHT22;6639;50.956;4.242;2023-02-28T08:46:38;6.10;99.30
13148;DHT22;6639;50.956;4.242;2023-02-28T08:49:05;6.00;98.20
13148;DHT22;6639;50.956;4.242;2023-02-28T08:51:32;5.90;98.10
13148;DHT22;6639;50.956;4.242;2023-02-28T08:54:00;6.50;98.20
13148;DHT22;6639;50.956;4.242;2023-02-28T08:56:28;6.30;97.20
13148;DHT22;6639;50.956;4.242;2023-02-28T08:58:57;6.00;97.30
13148;DHT22;6639;50.956;4.242;2023-02-28T09:01:25;6.00;96.50
13148;DHT22;6639;50.956;4.242;2023-02-28T09:03:54;5.70;97.20
13148;DHT22;6639;50.956;4.242;2023-02-28T09:06:23;6.40;96.90
13148;DHT22;6639;50.956;4.242;2023-02-28T09:08:50;6.50;96.00
13148;DHT22;6639;50.956;4.242;2023-02-28T09:11:18;6.60;95.90
13148;DHT22;6639;50.956;4.242;2023-02-28T09:13:45;6.40;95.60
13148;DHT22;6639;50.956;4.242;2023-02-28T09:16:15;6.10;96.10
13148;DHT22;6639;50.956;4.242;2023-02-28T09:18:44;6.60;96.70
13148;DHT22;6639;50.956;4.242;2023-02-28T09:21:14;7.50;96.40
13148;DHT22;6639;50.956;4.242;2023-02-28T09:23:41;8.30;95.00
13148;DHT22;6639;50.956;4.242;2023-02-28T09:26:13;8.60;94.10
13148;DHT22;6639;50.956;4.242;2023-02-28T09:28:40;9.10;93.90
13148;DHT22;6639;50.956;4.242;2023-02-28T09:31:14;9.10;93.10
13148;DHT22;6639;50.956;4.242;2023-02-28T09:33:41;9.40;94.00
13148;DHT22;6639;50.956;4.242;2023-02-28T09:36:08;10.20;92.90
13148;DHT22;6639;50.956;4.242;2023-02-28T09:38:35;10.40;90.50
13148;DHT22;6639;50.956;4.242;2023-02-28T09:41:08;10.70;90.10
13148;DHT22;6639;50.956;4.242;2023-02-28T09:43:40;10.50;89.80
13148;DHT22;6639;50.956;4.242;2023-02-28T09:46:18;10.10;87.10
13148;DHT22;6639;50.956;4.242;2023-02-28T09:48:49;9.80;90.60
13148;DHT22;6639;50.956;4.242;2023-02-28T09:51:28;10.00;88.60
13148;DHT22;6639;50.956;4.242;2023-02-28T09:53:56;9.70;88.10
13148;DHT22;6639;50.956;4.242;2023-02-28T09:56:30;9.80;89.10
13148;DHT22;6639;50.956;4.242;2023-02-28T09:59:00;10.00;88.40
13148;DHT22;6639;50.956;4.242;2023-02-28T10:01:34;10.30;89.70
13148;DHT22;6639;50.956;4.242;2023-02-28T10:04:05;10.40;86.60
13148;DHT22;6639;50.956;4.242;2023-02-28T10:06:41;10.40;85.60
13148;DHT22;6639;50.956;4.242;2023-02-28T10:09:15;10.90;87.30
13148;DHT22;6639;50.956;4.242;2023-02-28T10:11:46;10.90;84.60
13148;DHT22;6639;50.956;4.242;2023-02-28T10:14:17;10.90;85.10
13148;DHT22;6639;50.956;4.242;2023-02-28T10:16:50;11.30;85.60
13148;DHT22;6639;50.956;4.242;2023-02-28T10:19:23;11.40;84.40
13148;DHT22;6639;50.956;4.242;2023-02-28T10:21:56;10.90;83.00
13148;DHT22;6639;50.956;4.242;2023-02-28T10:24:28;10.90;83.10
13148;DHT22;6639;50.956;4.242;2023-02-28T10:27:00;11.00;83.80
13148;DHT22;6639;50.956;4.242;2023-02-28T10:29:28;10.60;84.30
13148;DHT22;6639;50.956;4.242;2023-02-28T10:32:01;10.80;85.70
13148;DHT22;6639;50.956;4.242;2023-02-28T10:34:28;10.30;83.00
13148;DHT22;6639;50.956;4.242;2023-02-28T10:36:56;9.90;84.70
13148;DHT22;6639;50.956;4.242;2023-02-28T10:39:40;10.00;84.70
13148;DHT22;6639;50.956;4.242;2023-02-28T10:42:23;10.10;86.90
13148;DHT22;6639;50.956;4.242;2023-02-28T10:45:06;10.00;83.90
13148;DHT22;6639;50.956;4.242;2023-02-28T10:47:40;9.90;84.30
13148;DHT22;6639;50.956;4.242;2023-02-28T10:50:27;9.70;83.50
13148;DHT22;6639;50.956;4.242;2023-02-28T10:52:54;9.50;86.00
13148;DHT22;6639;50.956;4.242;2023-02-28T10:55:23;10.00;82.80
13148;DHT22;6639;50.956;4.242;2023-02-28T10:57:51;10.40;81.90
13148;DHT22;6639;50.956;4.242;2023-02-28T11:00:21;10.10;80.90
13148;DHT22;6639;50.956;4.242;2023-02-28T11:02:49;10.20;79.60
13148;DHT22;6639;50.956;4.242;2023-02-28T11:05:25;10.70;83.20
13148;DHT22;6639;50.956;4.242;2023-02-28T11:07:53;10.60;81.90
13148;DHT22;6639;50.956;4.242;2023-02-28T11:10:24;10.70;80.20
13148;DHT22;6639;50.956;4.242;2023-02-28T11:12:54;10.70;79.20
13148;DHT22;6639;50.956;4.242;2023-02-28T11:15:24;11.50;77.80
13148;DHT22;6639;50.956;4.242;2023-02-28T11:17:57;11.30;79.50
13148;DHT22;6639;50.956;4.242;2023-02-28T11:20:27;11.90;78.70
13148;DHT22;6639;50.956;4.242;2023-02-28T11:22:56;11.40;75.90
13148;DHT22;6639;50.956;4.242;2023-02-28T11:25:25;11.80;77.50
13148;DHT22;6639;50.956;4.242;2023-02-28T11:27:54;12.10;78.20
13148;DHT22;6639;50.956;4.242;2023-02-28T11:30:34;11.30;78.20
13148;DHT22;6639;50.956;4.242;2023-02-28T11:33:22;11.30;78.70
13148;DHT22;6639;50.956;4.242;2023-02-28T11:35:51;11.00;76.30
13148;DHT22;6639;50.956;4.242;2023-02-28T11:38:19;11.10;78.10
13148;DHT22;6639;50.956;4.242;2023-02-28T11:40:50;11.20;78.30
13148;DHT22;6639;50.956;4.242;2023-02-28T11:43:32;11.10;75.50
13148;DHT22;6639;50.956;4.242;2023-02-28T11:46:10;11.30;80.90
13148;DHT22;6639;50.956;4.242;2023-02-28T11:48:52;12.10;78.90
13148;DHT22;6639;50.956;4.242;2023-02-28T11:51:22;12.00;74.20
13148;DHT22;6639;50.956;4.242;2023-02-28T11:54:16;10.90;75.60
13148;DHT22;6639;50.956;4.242;2023-02-28T11:56:51;10.40;77.90
13148;DHT22;6639;50.956;4.242;2023-02-28T11:59:43;10.70;80.00
13148;DHT22;6639;50.956;4.242;2023-02-28T12:02:25;10.80;78.10
13148;DHT22;6639;50.956;4.242;2023-02-28T12:05:13;10.90;78.90
13148;DHT22;6639;50.956;4.242;2023-02-28T12:07:50;11.20;78.40
13148;DHT22;6639;50.956;4.242;2023-02-28T12:10:23;11.40;80.00
13148;DHT22;6639;50.956;4.242;2023-02-28T12:13:05;11.80;78.80
13148;DHT22;6639;50.956;4.242;2023-02-28T12:16:01;11.80;75.40
13148;DHT22;6639;50.956;4.242;2023-02-28T12:18:46;11.50;75.50
13148;DHT22;6639;50.956;4.242;2023-02-28T12:21:24;10.60;77.80
13148;DHT22;6639;50.956;4.242;2023-02-28T12:26:49;11.60;78.70
13148;DHT22;6639;50.956;4.242;2023-02-28T12:29:19;11.10;74.00
13148;DHT22;6639;50.956;4.242;2023-02-28T12:31:51;11.30;75.50
13148;DHT22;6639;50.956;4.242;2023-02-28T12:34:24;11.00;74.50
13148;DHT22;6639;50.956;4.242;2023-02-28T12:36:58;10.60;76.00
13148;DHT22;6639;50.956;4.242;2023-02-28T12:39:30;10.40;76.00
13148;DHT22;6639;50.956;4.242;2023-02-28T12:42:01;10.50;77.30
13148;DHT22;6639;50.956;4.242;2023-02-28T12:44:33;10.30;77.40
13148;DHT22;6639;50.956;4.242;2023-02-28T12:47:04;10.40;76.30
13148;DHT22;6639;50.956;4.242;2023-02-28T12:49:37;10.90;77.40
13148;DHT22;6639;50.956;4.242;2023-02-28T12:52:07;11.10;75.60
13148;DHT22;6639;50.956;4.242;2023-02-28T12:54:42;11.10;76.50
13148;DHT22;6639;50.956;4.242;2023-02-28T12:57:17;11.50;76.10
13148;DHT22;6639;50.956;4.242;2023-02-28T12:59:48;11.40;76.30
13148;DHT22;6639;50.956;4.242;2023-02-28T13:05:37;11.10;75.60
13148;DHT22;6639;50.956;4.242;2023-02-28T13:08:36;10.60;77.40
13148;DHT22;6639;50.956;4.242;2023-02-28T13:11:23;10.40;78.30
13148;DHT22;6639;50.956;4.242;2023-02-28T13:13:57;10.50;74.10
13148;DHT22;6639;50.956;4.242;2023-02-28T13:16:25;10.60;75.40
13148;DHT22;6639;50.956;4.242;2023-02-28T13:18:52;10.70;75.60
13148;DHT22;6639;50.956;4.242;2023-02-28T13:21:42;10.20;75.90
13148;DHT22;6639;50.956;4.242;2023-02-28T13:24:40;10.10;77.20
13148;DHT22;6639;50.956;4.242;2023-02-28T13:29:56;9.90;78.70
13148;DHT22;6639;50.956;4.242;2023-02-28T13:32:33;10.10;75.00
13148;DHT22;6639;50.956;4.242;2023-02-28T13:41:42;9.80;78.80
13148;DHT22;6639;50.956;4.242;2023-02-28T13:44:10;9.60;76.00
13148;DHT22;6639;50.956;4.242;2023-02-28T13:49:38;9.30;79.70
13148;DHT22;6639;50.956;4.242;2023-02-28T13:52:19;9.90;79.70
13148;DHT22;6639;50.956;4.242;2023-02-28T13:55:27;10.20;75.30
13148;DHT22;6639;50.956;4.242;2023-02-28T14:01:04;10.00;79.00
13148;DHT22;6639;50.956;4.242;2023-02-28T14:06:29;9.90;78.00
13148;DHT22;6639;50.956;4.242;2023-02-28T14:09:00;10.00;79.70
13148;DHT22;6639;50.956;4.242;2023-02-28T14:11:34;10.00;77.60
13148;DHT22;6639;50.956;4.242;2023-02-28T14:14:05;9.90;78.70
13148;DHT22;6639;50.956;4.242;2023-02-28T14:16:39;9.70;79.80
13148;DHT22;6639;50.956;4.242;2023-02-28T14:19:12;9.40;78.80
13148;DHT22;6639;50.956;4.242;2023-02-28T14:21:52;8.90;78.40
13148;DHT22;6639;50.956;4.242;2023-02-28T14:24:49;9.20;81.80
13148;DHT22;6639;50.956;4.242;2023-02-28T14:27:28;8.80;78.80
13148;DHT22;6639;50.956;4.242;2023-02-28T14:30:50;8.20;79.00
13148;DHT22;6639;50.956;4.242;2023-02-28T14:36:26;8.90;84.10
13148;DHT22;6639;50.956;4.242;2023-02-28T14:38:57;9.40;81.30
13148;DHT22;6639;50.956;4.242;2023-02-28T14:41:29;8.80;79.70
13148;DHT22;6639;50.956;4.242;2023-02-28T14:43:59;8.50;79.50
13148;DHT22;6639;50.956;4.242;2023-02-28T14:46:36;8.20;82.90
13148;DHT22;6639;50.956;4.242;2023-02-28T14:49:15;8.20;79.60
13148;DHT22;6639;50.956;4.242;2023-02-28T14:51:42;8.20;81.80
13148;DHT22;6639;50.956;4.242;2023-02-28T14:54:14;8.30;82.30
13148;DHT22;6639;50.956;4.242;2023-02-28T14:56:42;8.10;79.60
13148;DHT22;6639;50.956;4.242;2023-02-28T14:59:25;7.90;81.30
13148;DHT22;6639;50.956;4.242;2023-02-28T15:02:17;8.10;80.60
13148;DHT22;6639;50.956;4.242;2023-02-28T15:04:52;8.30;81.00
13148;DHT22;6639;50.956;4.242;2023-02-28T15:07:20;8.30;81.10
13148;DHT22;6639;50.956;4.242;2023-02-28T15:10:13;8.20;80.40
13148;DHT22;6639;50.956;4.242;2023-02-28T15:12:48;8.00;83.40
13148;DHT22;6639;50.956;4.242;2023-02-28T15:15:17;8.00;83.00
13148;DHT22;6639;50.956;4.242;2023-02-28T15:17:50;8.00;81.90
13148;DHT22;6639;50.956;4.242;2023-02-28T15:20:20;8.20;84.40
13148;DHT22;6639;50.956;4.242;2023-02-28T15:22:50;8.20;82.20
13148;DHT22;6639;50.956;4.242;2023-02-28T15:25:21;8.20;82.10
13148;DHT22;6639;50.956;4.242;2023-02-28T15:27:50;7.90;81.90
13148;DHT22;6639;50.956;4.242;2023-02-28T15:30:22;8.00;83.20
13148;DHT22;6639;50.956;4.242;2023-02-28T15:33:19;8.20;82.90
13148;DHT22;6639;50.956;4.242;2023-02-28T15:35:49;8.10;84.00
13148;DHT22;6639;50.956;4.242;2023-02-28T15:38:21;8.00;83.80
13148;DHT22;6639;50.956;4.242;2023-02-28T15:40:51;8.10;84.90
13148;DHT22;6639;50.956;4.242;2023-02-28T15:43:27;7.80;83.60
13148;DHT22;6639;50.956;4.242;2023-02-28T15:45:58;7.50;85.00
13148;DHT22;6639;50.956;4.242;2023-02-28T15:48:29;7.50;84.80
13148;DHT22;6639;50.956;4.242;2023-02-28T15:51:02;7.80;85.40
13148;DHT22;6639;50.956;4.242;2023-02-28T15:53:37;8.40;84.60
13148;DHT22;6639;50.956;4.242;2023-02-28T15:56:13;8.10;83.40
13148;DHT22;6639;50.956;4.242;2023-02-28T15:58:44;8.00;84.50
13148;DHT22;6639;50.956;4.242;2023-02-28T16:01:23;8.40;83.40
13148;DHT22;6639;50.956;4.242;2023-02-28T16:03:54;8.00;84.60
13148;DHT22;6639;50.956;4.242;2023-02-28T16:06:33;8.40;85.20
13148;DHT22;6639;50.956;4.242;2023-02-28T16:09:00;8.60;84.10
13148;DHT22;6639;50.956;4.242;2023-02-28T16:11:28;8.50;83.70
13148;DHT22;6639;50.956;4.242;2023-02-28T16:13:56;8.10;82.80
13148;DHT22;6639;50.956;4.242;2023-02-28T16:16:25;8.50;84.30
13148;DHT22;6639;50.956;4.242;2023-02-28T16:18:57;8.90;84.60
13148;DHT22;6639;50.956;4.242;2023-02-28T16:21:25;9.00;84.10
13148;DHT22;6639;50.956;4.242;2023-02-28T16:23:52;9.20;84.50
13148;DHT22;6639;50.956;4.242;2023-02-28T16:26:21;9.10;84.40
13148;DHT22;6639;50.956;4.242;2023-02-28T16:28:50;8.80;83.70
13148;DHT22;6639;50.956;4.242;2023-02-28T16:31:20;9.30;85.00
13148;DHT22;6639;50.956;4.242;2023-02-28T16:33:51;9.60;82.40
13148;DHT22;6639;50.956;4.242;2023-02-28T16:36:26;9.00;82.80
13148;DHT22;6639;50.956;4.242;2023-02-28T16:38:54;8.30;83.00
13148;DHT22;6639;50.956;4.242;2023-02-28T16:41:23;8.30;84.80
13148;DHT22;6639;50.956;4.242;2023-02-28T16:43:54;7.90;84.90
13148;DHT22;6639;50.956;4.242;2023-02-28T16:46:29;7.90;83.80
13148;DHT22;6639;50.956;4.242;2023-02-28T16:48:58;7.50;84.50
13148;DHT22;6639;50.956;4.242;2023-02-28T16:51:27;8.00;85.90
13148;DHT22;6639;50.956;4.242;2023-02-28T16:53:54;8.10;84.70
13148;DHT22;6639;50.956;4.242;2023-02-28T16:56:23;8.60;85.10
13148;DHT22;6639;50.956;4.242;2023-02-28T16:58:54;8.60;84.00
13148;DHT22;6639;50.956;4.242;2023-02-28T17:01:22;8.50;83.40
13148;DHT22;6639;50.956;4.242;2023-02-28T17:03:51;8.80;84.10